Terminal Aerodrome Forecast
Issued by NWS Memphis, TN

Home | Current Version | Previous Version | Text Only | Print | Product List | Glossary On
Versions: 1 2 3 4 5 6 7 8 9 10 11 12 13 14 15 16
000
FTUS44 KMEG 231253 AAA
TAFMKL
TAF AMD
KMKL 231253Z 2313/2412 VRB03KT 6SM BR FEW004 SCT250
      TEMPO 2313/2314 BKN002
     FM231500 04005KT P6SM SCT040 SCT250
     FM240100 VRB03KT P6SM FEW150 SCT250
     FM240800 00000KT 4SM BR SCT250=

USA.gov is the U.S. government's official web portal to all federal, state and local government web resources and services.